sensor_id;sensor_type;location;lat;lon;timestamp;P1;durP1;ratioP1;P2;durP2;ratioP2
9489;SDS011;4783;42.734;23.288;2023-02-01T08:48:41;8.40;;;7.60;;
9489;SDS011;4783;42.734;23.288;2023-02-01T08:51:07;8.37;;;7.47;;
9489;SDS011;4783;42.734;23.288;2023-02-01T08:53:33;7.80;;;7.10;;
9489;SDS011;4783;42.734;23.288;2023-02-01T08:55:58;8.33;;;7.30;;
9489;SDS011;4783;42.734;23.288;2023-02-01T09:01:33;9.07;;;6.60;;
9489;SDS011;4783;42.734;23.288;2023-02-01T09:03:58;9.20;;;7.00;;
9489;SDS011;4783;42.734;23.288;2023-02-01T09:06:23;7.53;;;6.80;;
9489;SDS011;4783;42.734;23.288;2023-02-01T09:08:49;8.20;;;6.13;;
9489;SDS011;4783;42.734;23.288;2023-02-01T09:11:16;8.40;;;6.07;;
9489;SDS011;4783;42.734;23.288;2023-02-01T09:13:42;7.27;;;6.10;;
9489;SDS011;4783;42.734;23.288;2023-02-01T09:16:07;6.53;;;5.83;;
9489;SDS011;4783;42.734;23.288;2023-02-01T09:18:32;8.40;;;5.93;;
9489;SDS011;4783;42.734;23.288;2023-02-01T09:20:58;11.17;;;6.57;;
9489;SDS011;4783;42.734;23.288;2023-02-01T09:23:23;6.80;;;6.00;;
9489;SDS011;4783;42.734;23.288;2023-02-01T09:25:48;9.37;;;6.27;;
9489;SDS011;4783;42.734;23.288;2023-02-01T09:28:17;8.67;;;6.00;;
9489;SDS011;4783;42.734;23.288;2023-02-01T09:30:42;11.07;;;5.67;;
9489;SDS011;4783;42.734;23.288;2023-02-01T09:33:08;11.43;;;6.63;;
9489;SDS011;4783;42.734;23.288;2023-02-01T09:35:33;8.80;;;7.57;;
9489;SDS011;4783;42.734;23.288;2023-02-01T09:37:58;6.07;;;5.43;;
9489;SDS011;4783;42.734;23.288;2023-02-01T09:40:24;8.07;;;5.90;;
9489;SDS011;4783;42.734;23.288;2023-02-01T09:45:19;6.20;;;5.60;;
9489;SDS011;4783;42.734;23.288;2023-02-01T09:47:51;9.03;;;6.87;;
9489;SDS011;4783;42.734;23.288;2023-02-01T09:50:22;8.30;;;5.20;;
9489;SDS011;4783;42.734;23.288;2023-02-01T09:55:24;7.03;;;5.28;;
9489;SDS011;4783;42.734;23.288;2023-02-01T10:00:21;7.50;;;5.40;;
9489;SDS011;4783;42.734;23.288;2023-02-01T10:02:48;8.43;;;5.53;;
9489;SDS011;4783;42.734;23.288;2023-02-01T10:05:15;6.00;;;5.50;;
9489;SDS011;4783;42.734;23.288;2023-02-01T10:07:57;5.93;;;5.10;;
9489;SDS011;4783;42.734;23.288;2023-02-01T10:13:06;8.97;;;5.10;;
9489;SDS011;4783;42.734;23.288;2023-02-01T10:27:59;7.03;;;5.80;;
9489;SDS011;4783;42.734;23.288;2023-02-01T10:30:27;6.50;;;5.43;;
9489;SDS011;4783;42.734;23.288;2023-02-01T10:32:55;6.67;;;5.83;;
9489;SDS011;4783;42.734;23.288;2023-02-01T10:35:23;9.07;;;5.27;;
9489;SDS011;4783;42.734;23.288;2023-02-01T10:37:49;6.00;;;5.43;;
9489;SDS011;4783;42.734;23.288;2023-02-01T10:40:17;6.50;;;5.90;;
9489;SDS011;4783;42.734;23.288;2023-02-01T10:42:44;10.77;;;6.27;;
9489;SDS011;4783;42.734;23.288;2023-02-01T10:45:12;6.00;;;5.40;;
9489;SDS011;4783;42.734;23.288;2023-02-01T10:47:38;9.63;;;5.43;;
9489;SDS011;4783;42.734;23.288;2023-02-01T10:58:26;7.23;;;5.37;;
9489;SDS011;4783;42.734;23.288;2023-02-01T11:00:46;5.70;;;4.90;;
9489;SDS011;4783;42.734;23.288;2023-02-01T11:05:55;5.87;;;4.80;;
9489;SDS011;4783;42.734;23.288;2023-02-01T11:11:11;5.30;;;4.80;;
9489;SDS011;4783;42.734;23.288;2023-02-01T11:13:37;5.87;;;5.30;;
9489;SDS011;4783;42.734;23.288;2023-02-01T11:16:03;7.40;;;5.00;;
9489;SDS011;4783;42.734;23.288;2023-02-01T11:18:30;8.30;;;5.17;;
9489;SDS011;4783;42.734;23.288;2023-02-01T11:20:56;8.50;;;5.03;;
9489;SDS011;4783;42.734;23.288;2023-02-01T11:23:23;6.70;;;4.77;;
9489;SDS011;4783;42.734;23.288;2023-02-01T11:25:56;4.67;;;4.20;;
9489;SDS011;4783;42.734;23.288;2023-02-01T11:28:23;7.87;;;5.70;;
9489;SDS011;4783;42.734;23.288;2023-02-01T11:30:48;5.10;;;4.60;;
9489;SDS011;4783;42.734;23.288;2023-02-01T11:33:17;6.97;;;5.50;;
9489;SDS011;4783;42.734;23.288;2023-02-01T11:35:43;5.53;;;5.00;;
9489;SDS011;4783;42.734;23.288;2023-02-01T11:38:28;8.87;;;5.10;;
9489;SDS011;4783;42.734;23.288;2023-02-01T11:40:54;7.63;;;4.45;;
9489;SDS011;4783;42.734;23.288;2023-02-01T11:43:24;5.03;;;4.20;;
9489;SDS011;4783;42.734;23.288;2023-02-01T11:48:20;6.13;;;4.00;;
9489;SDS011;4783;42.734;23.288;2023-02-01T11:53:37;6.07;;;4.70;;
9489;SDS011;4783;42.734;23.288;2023-02-01T11:56:11;4.40;;;4.00;;
9489;SDS011;4783;42.734;23.288;2023-02-01T12:09:13;4.82;;;4.13;;
9489;SDS011;4783;42.734;23.288;2023-02-01T12:14:24;5.05;;;3.83;;
9489;SDS011;4783;42.734;23.288;2023-02-01T12:24:50;4.75;;;4.25;;
9489;SDS011;4783;42.734;23.288;2023-02-01T12:47:47;4.35;;;3.95;;
9489;SDS011;4783;42.734;23.288;2023-02-01T12:52:51;6.45;;;4.88;;
9489;SDS011;4783;42.734;23.288;2023-02-01T12:57:43;4.50;;;4.10;;
9489;SDS011;4783;42.734;23.288;2023-02-01T13:08:34;4.13;;;3.72;;
9489;SDS011;4783;42.734;23.288;2023-02-01T13:11:06;6.00;;;4.10;;
9489;SDS011;4783;42.734;23.288;2023-02-01T13:18:34;6.60;;;3.90;;
9489;SDS011;4783;42.734;23.288;2023-02-01T13:21:05;3.60;;;3.30;;
9489;SDS011;4783;42.734;23.288;2023-02-01T13:23:36;3.78;;;3.47;;
9489;SDS011;4783;42.734;23.288;2023-02-01T13:26:02;4.03;;;3.60;;
9489;SDS011;4783;42.734;23.288;2023-02-01T13:28:40;7.47;;;3.90;;
9489;SDS011;4783;42.734;23.288;2023-02-01T13:41:38;5.00;;;4.50;;
9489;SDS011;4783;42.734;23.288;2023-02-01T13:44:10;4.65;;;4.20;;
9489;SDS011;4783;42.734;23.288;2023-02-01T13:46:40;6.65;;;3.75;;
9489;SDS011;4783;42.734;23.288;2023-02-01T13:49:06;4.72;;;4.10;;
9489;SDS011;4783;42.734;23.288;2023-02-01T13:51:45;6.40;;;4.60;;
9489;SDS011;4783;42.734;23.288;2023-02-01T13:56:51;4.80;;;4.28;;
9489;SDS011;4783;42.734;23.288;2023-02-01T14:02:35;4.10;;;3.65;;
9489;SDS011;4783;42.734;23.288;2023-02-01T14:04:47;4.10;;;3.67;;
9489;SDS011;4783;42.734;23.288;2023-02-01T14:07:17;6.75;;;4.18;;
9489;SDS011;4783;42.734;23.288;2023-02-01T14:09:43;4.57;;;4.13;;
9489;SDS011;4783;42.734;23.288;2023-02-01T14:14:52;4.10;;;3.70;;
9489;SDS011;4783;42.734;23.288;2023-02-01T14:17:37;4.57;;;3.70;;
9489;SDS011;4783;42.734;23.288;2023-02-01T14:22:46;4.03;;;3.65;;
9489;SDS011;4783;42.734;23.288;2023-02-01T14:25:17;4.18;;;3.78;;
9489;SDS011;4783;42.734;23.288;2023-02-01T14:27:43;4.03;;;3.67;;
9489;SDS011;4783;42.734;23.288;2023-02-01T14:30:13;8.38;;;3.70;;
9489;SDS011;4783;42.734;23.288;2023-02-01T14:32:40;4.22;;;3.83;;
9489;SDS011;4783;42.734;23.288;2023-02-01T14:35:08;6.47;;;3.70;;
9489;SDS011;4783;42.734;23.288;2023-02-01T14:37:41;5.20;;;3.80;;
9489;SDS011;4783;42.734;23.288;2023-02-01T15:00:31;5.47;;;4.90;;
